Time;durP1;ratioP1;P1;durP2;ratioP2;P2;SDS_P1;SDS_P2;PMS_P1;PMS_P2;Temp;Humidity;BMP_temperature;BMP_pressure;BME280_temperature;BME280_humidity;BME280_pressure;Samples;Min_cycle;Max_cycle;Signal;HPM_P1;HPM_P2
2022/09/04 00:01:30;;;;;;;10.27;6.23;;;16.50;41.30;;;;;;5101187;27;20485;-67
2022/09/04 00:04:10;;;;;;;7.70;5.23;;;16.50;41.30;;;;;;5102091;28;20468;-67
2022/09/04 00:06:42;;;;;;;8.70;5.40;;;16.40;41.20;;;;;;5096368;27;20546;-67
2022/09/04 00:09:18;;;;;;;7.60;5.20;;;16.40;41.30;;;;;;5100196;28;20478;-67
2022/09/04 00:11:53;;;;;;;7.00;5.10;;;16.40;41.40;;;;;;5101609;27;20451;-67
2022/09/04 00:14:22;;;;;;;10.27;6.17;;;16.30;41.50;;;;;;5106290;27;20482;-67
2022/09/04 00:16:57;;;;;;;7.90;5.07;;;16.30;41.50;;;;;;5103545;27;20460;-67
2022/09/04 00:19:30;;;;;;;7.70;5.40;;;16.20;41.60;;;;;;5099340;27;20479;-67
2022/09/04 00:22:00;;;;;;;8.13;5.13;;;16.30;42.10;;;;;;5101125;28;20464;-67
2022/09/04 00:24:31;;;;;;;7.70;5.40;;;16.20;42.10;;;;;;5105505;27;20471;-67
2022/09/04 00:27:07;;;;;;;9.80;5.93;;;16.20;42.20;;;;;;5094650;28;20457;-67
2022/09/04 00:29:42;;;;;;;9.37;6.70;;;16.20;42.40;;;;;;5105401;28;20530;-67
2022/09/04 00:32:19;;;;;;;10.30;5.53;;;16.20;42.40;;;;;;5094244;27;20463;-67
2022/09/04 00:35:02;;;;;;;11.80;6.13;;;16.20;42.50;;;;;;5093484;27;21116;-67
2022/09/04 00:37:33;;;;;;;9.63;5.70;;;16.20;42.60;;;;;;5097043;27;20543;-67
2022/09/04 00:40:07;;;;;;;7.53;5.67;;;16.20;42.50;;;;;;5103873;27;20477;-67
2022/09/04 00:43:05;;;;;;;8.90;6.13;;;16.20;42.30;;;;;;5101323;27;20554;-68
2022/09/04 00:46:01;;;;;;;12.60;5.77;;;16.10;42.70;;;;;;5062683;28;20467;-67
2022/09/04 00:49:12;;;;;;;8.83;5.87;;;16.10;42.60;;;;;;5101841;28;20839;-67
2022/09/04 00:51:52;;;;;;;8.10;5.57;;;16.10;42.90;;;;;;5100018;27;20471;-67
2022/09/04 00:54:38;;;;;;;12.13;6.50;;;16.10;42.90;;;;;;5100943;27;20483;-67
2022/09/04 00:57:43;;;;;;;8.47;5.90;;;16.10;43.30;;;;;;5100310;27;20455;-67
2022/09/04 01:00:14;;;;;;;7.80;5.43;;;16.10;43.30;;;;;;5102070;27;20475;-68
2022/09/04 01:02:57;;;;;;;8.03;5.73;;;16.10;43.00;;;;;;5101121;27;20459;-68
2022/09/04 01:05:39;;;;;;;11.20;5.90;;;16.10;43.20;;;;;;5101975;28;20513;-67
2022/09/04 01:08:15;;;;;;;8.90;6.30;;;16.00;43.20;;;;;;5102438;27;21144;-67
2022/09/04 01:10:53;;;;;;;9.70;6.00;;;16.00;43.00;;;;;;5097664;27;20444;-66
2022/09/04 01:13:30;;;;;;;12.30;6.40;;;16.00;43.10;;;;;;5091220;27;20534;-67
2022/09/04 01:16:04;;;;;;;10.37;5.60;;;16.00;43.20;;;;;;5100551;27;20979;-67
2022/09/04 01:18:40;;;;;;;9.20;6.23;;;15.90;43.40;;;;;;5101654;27;20509;-67
2022/09/04 01:21:33;;;;;;;7.97;5.83;;;15.90;43.50;;;;;;5100228;27;21021;-67
2022/09/04 01:24:19;;;;;;;8.60;5.43;;;15.90;43.80;;;;;;5104466;27;20456;-67
2022/09/04 01:26:54;;;;;;;8.00;4.90;;;15.90;43.60;;;;;;5099846;28;20863;-67
2022/09/04 01:29:31;;;;;;;7.00;4.73;;;16.00;43.60;;;;;;5101882;27;20454;-67
2022/09/04 01:32:08;;;;;;;10.07;5.60;;;15.90;43.60;;;;;;5105834;27;20475;-67
2022/09/04 01:34:42;;;;;;;10.13;5.57;;;15.90;43.50;;;;;;5101325;28;21538;-67
2022/09/04 01:37:24;;;;;;;8.40;5.90;;;15.90;43.40;;;;;;5101001;27;20458;-67
2022/09/04 01:40:07;;;;;;;8.60;4.97;;;15.90;43.30;;;;;;5099353;27;20452;-67
2022/09/04 01:42:47;;;;;;;7.33;5.07;;;15.90;43.30;;;;;;5097822;27;20456;-67
2022/09/04 01:45:25;;;;;;;8.00;6.07;;;15.90;43.30;;;;;;5096137;28;20477;-67
2022/09/04 01:47:58;;;;;;;8.90;4.60;;;15.90;43.20;;;;;;5101663;27;20472;-67
2022/09/04 01:50:27;;;;;;;8.00;4.40;;;15.90;43.10;;;;;;5101264;28;20443;-67
2022/09/04 01:53:00;;;;;;;6.67;3.83;;;15.90;43.10;;;;;;5097680;28;20975;-67
2022/09/04 01:58:18;;;;;;;7.60;4.37;;;15.90;43.00;;;;;;5081141;22;20513;-77
2022/09/04 02:00:55;;;;;;;6.50;3.70;;;15.90;43.20;;;;;;5055788;28;20485;-76
2022/09/04 02:03:27;;;;;;;6.10;3.70;;;15.90;42.90;;;;;;5066235;28;20460;-77
2022/09/04 02:06:04;;;;;;;6.07;3.40;;;15.90;42.90;;;;;;5061013;28;20559;-77
2022/09/04 02:08:54;;;;;;;7.47;4.57;;;15.90;43.00;;;;;;5061852;28;20453;-77
2022/09/04 02:11:25;;;;;;;7.67;3.57;;;15.90;43.10;;;;;;5061317;28;20460;-78
2022/09/04 02:14:16;;;;;;;7.40;4.03;;;15.90;42.80;;;;;;5054566;28;20469;-78
2022/09/04 02:16:52;;;;;;;8.17;4.20;;;15.90;43.00;;;;;;5054289;28;20775;-77
2022/09/04 02:19:33;;;;;;;7.10;4.10;;;15.80;43.00;;;;;;5059843;28;20464;-77
2022/09/04 02:22:07;;;;;;;7.00;4.10;;;15.80;42.20;;;;;;5058777;28;20496;-79
2022/09/04 02:24:45;;;;;;;7.97;4.70;;;15.80;42.20;;;;;;5055970;28;20468;-78
2022/09/04 02:27:19;;;;;;;7.73;5.23;;;15.80;42.10;;;;;;5059113;28;20496;-78
2022/09/04 02:29:55;;;;;;;7.37;4.40;;;15.70;42.10;;;;;;5057550;28;20465;-78
2022/09/04 02:32:27;;;;;;;7.23;3.63;;;15.70;42.20;;;;;;5056829;28;20465;-78
2022/09/04 02:35:01;;;;;;;7.67;4.77;;;15.70;42.30;;;;;;5054021;28;20471;-78
2022/09/04 02:37:37;;;;;;;7.90;5.03;;;15.60;42.00;;;;;;5060768;28;20481;-77
2022/09/04 02:40:13;;;;;;;7.47;4.80;;;15.60;41.90;;;;;;5064092;28;20468;-77
2022/09/04 02:42:56;;;;;;;7.43;5.03;;;15.60;42.00;;;;;;5059610;28;20481;-78
2022/09/04 02:45:32;;;;;;;6.70;4.57;;;15.60;41.90;;;;;;5056711;28;20462;-77
2022/09/04 02:48:05;;;;;;;6.60;4.03;;;15.60;41.90;;;;;;5057716;28;20464;-81
2022/09/04 02:50:55;;;;;;;6.87;4.40;;;15.50;41.90;;;;;;5060806;28;20460;-79
2022/09/04 02:53:30;;;;;;;7.00;4.30;;;15.40;42.10;;;;;;5058595;28;20485;-80
2022/09/04 02:56:09;;;;;;;6.87;4.30;;;15.40;41.90;;;;;;5055431;28;21279;-79
2022/09/04 02:58:48;;;;;;;6.57;4.53;;;15.40;42.00;;;;;;5059019;28;20460;-78
2022/09/04 03:01:26;;;;;;;7.10;4.70;;;15.30;42.10;;;;;;5062847;28;20473;-78
2022/09/04 03:04:02;;;;;;;7.07;3.97;;;15.30;43.10;;;;;;5057596;28;20457;-78
2022/09/04 03:06:44;;;;;;;11.10;4.87;;;15.30;42.30;;;;;;5063011;28;20861;-79
2022/09/04 03:09:17;;;;;;;7.60;4.53;;;15.30;42.40;;;;;;5062934;28;20459;-77
2022/09/04 03:11:49;;;;;;;7.17;5.00;;;15.20;42.10;;;;;;5053582;28;20460;-76
2022/09/04 03:14:23;;;;;;;8.30;5.73;;;15.20;42.10;;;;;;5066612;28;20499;-76
2022/09/04 03:16:57;;;;;;;9.40;5.87;;;15.20;42.20;;;;;;5062579;28;20607;-76
2022/09/04 03:19:31;;;;;;;7.30;4.93;;;15.20;42.80;;;;;;5064076;28;20855;-79
2022/09/04 03:22:06;;;;;;;7.43;4.50;;;15.20;42.70;;;;;;5063537;28;20476;-78
2022/09/04 03:24:39;;;;;;;8.13;5.00;;;15.20;43.00;;;;;;5061754;28;20827;-79
2022/09/04 03:27:10;;;;;;;7.60;5.23;;;15.20;42.80;;;;;;5067007;28;20481;-77
2022/09/04 03:29:50;;;;;;;8.17;5.17;;;15.20;42.90;;;;;;5067661;28;20453;-79
2022/09/04 03:32:24;;;;;;;8.77;5.50;;;15.10;42.80;;;;;;5060715;28;20465;-78
2022/09/04 03:35:00;;;;;;;8.67;5.90;;;15.20;43.20;;;;;;5063450;28;20807;-80
2022/09/04 03:37:41;;;;;;;7.83;4.77;;;15.10;43.40;;;;;;5061643;28;20480;-79
2022/09/04 03:40:26;;;;;;;7.80;5.23;;;15.10;43.10;;;;;;5063669;28;20464;-77
2022/09/04 03:43:06;;;;;;;7.87;5.50;;;15.10;43.10;;;;;;5061837;28;20512;-76
2022/09/04 03:45:45;;;;;;;7.17;4.93;;;15.10;42.80;;;;;;5063562;28;20488;-80
2022/09/04 03:48:26;;;;;;;9.10;5.80;;;15.10;43.00;;;;;;5063022;28;20461;-77
2022/09/04 03:50:58;;;;;;;7.30;5.00;;;15.10;42.80;;;;;;5060479;28;20457;-78
2022/09/04 03:53:31;;;;;;;6.83;5.10;;;15.10;43.00;;;;;;5060177;28;21000;-77
2022/09/04 03:56:24;;;;;;;6.37;4.43;;;15.20;43.10;;;;;;5063088;28;20488;-79
2022/09/04 03:59:01;;;;;;;8.53;4.90;;;15.20;43.30;;;;;;5062635;28;20708;-77
2022/09/04 04:01:36;;;;;;;8.03;4.40;;;15.20;43.10;;;;;;5054131;28;20477;-80
2022/09/04 04:04:43;;;;;;;7.47;4.60;;;15.10;42.80;;;;;;5060221;28;20463;-79
2022/09/04 04:07:21;;;;;;;8.80;5.10;;;15.10;43.10;;;;;;5058065;28;20870;-78
2022/09/04 04:10:01;;;;;;;7.67;4.90;;;15.10;42.70;;;;;;5060311;28;20467;-70
2022/09/04 04:12:44;;;;;;;10.37;4.23;;;15.10;42.70;;;;;;5065003;28;20567;-72
2022/09/04 04:15:26;;;;;;;7.70;4.23;;;15.10;42.80;;;;;;5063297;28;20457;-70
2022/09/04 04:18:12;;;;;;;7.50;4.50;;;15.00;42.70;;;;;;5065174;28;20563;-69
2022/09/04 04:20:45;;;;;;;10.00;5.20;;;14.90;43.20;;;;;;5055572;28;20458;-77
2022/09/04 04:23:33;;;;;;;6.77;4.50;;;15.00;42.90;;;;;;5064584;28;20472;-79
2022/09/04 04:26:10;;;;;;;7.53;4.43;;;14.90;43.00;;;;;;5057688;28;20848;-79
2022/09/04 04:29:01;;;;;;;8.03;5.33;;;14.90;42.80;;;;;;5062067;28;20453;-78
2022/09/04 04:31:43;;;;;;;8.10;4.50;;;14.90;42.80;;;;;;5054284;28;20474;-79
2022/09/04 04:34:18;;;;;;;7.43;4.40;;;14.90;42.80;;;;;;5056054;28;20449;-81
2022/09/04 04:36:55;;;;;;;6.73;4.50;;;14.80;42.60;;;;;;5062105;28;20476;-80
2022/09/04 04:39:27;;;;;;;7.13;4.60;;;14.80;42.80;;;;;;5060389;28;20461;-78
2022/09/04 04:42:04;;;;;;;7.47;4.70;;;14.80;42.60;;;;;;5056664;28;20478;-81
2022/09/04 04:47:43;;;;;;;8.03;5.70;;;14.80;42.70;;;;;;4971455;28;20632;-79
2022/09/04 04:50:18;;;;;;;7.70;4.13;;;14.80;42.50;;;;;;5062255;28;20961;-79
2022/09/04 04:52:55;;;;;;;6.70;4.10;;;14.80;42.70;;;;;;5059318;28;20465;-81
2022/09/04 04:55:33;;;;;;;7.50;4.90;;;14.80;42.80;;;;;;5060779;28;20549;-78
2022/09/04 04:58:31;;;;;;;8.30;5.00;;;14.80;42.70;;;;;;5057766;28;20477;-78
2022/09/04 05:01:08;;;;;;;6.73;4.67;;;14.80;43.50;;;;;;5044465;28;20473;-79
2022/09/04 05:03:51;;;;;;;6.60;4.67;;;14.90;43.70;;;;;;5058222;28;20453;-80
2022/09/04 05:06:24;;;;;;;7.37;4.90;;;15.00;43.90;;;;;;5049247;28;20490;-79
2022/09/04 05:09:01;;;;;;;8.67;4.93;;;15.10;44.00;;;;;;5055901;28;20467;-79
2022/09/04 05:11:37;;;;;;;6.50;4.27;;;15.30;43.70;;;;;;5058858;28;20449;-79
2022/09/04 05:14:17;;;;;;;8.73;4.33;;;15.60;42.80;;;;;;5061242;28;20513;-80
2022/09/04 05:16:51;;;;;;;6.60;4.10;;;16.00;41.70;;;;;;5049756;28;20486;-80
2022/09/04 05:19:26;;;;;;;7.00;3.60;;;16.60;40.40;;;;;;5056919;28;20481;-79
2022/09/04 05:22:02;;;;;;;6.70;3.77;;;16.90;38.90;;;;;;5056368;28;20473;-79
2022/09/04 05:24:35;;;;;;;6.67;3.90;;;17.10;37.80;;;;;;5057752;28;20453;-78
2022/09/04 05:27:07;;;;;;;5.90;3.20;;;17.50;37.00;;;;;;5054429;28;20488;-77
2022/09/04 05:29:50;;;;;;;6.10;3.20;;;17.90;36.10;;;;;;5056054;28;20462;-77
2022/09/04 05:32:24;;;;;;;7.47;3.30;;;18.20;34.60;;;;;;5057968;28;20492;-77
2022/09/04 05:35:01;;;;;;;6.90;3.00;;;18.50;33.90;;;;;;5058974;28;20460;-79
2022/09/04 05:37:34;;;;;;;5.63;3.10;;;18.70;33.90;;;;;;5057090;28;20522;-78
2022/09/04 05:40:06;;;;;;;5.20;3.10;;;18.90;33.60;;;;;;5059407;28;20981;-78
2022/09/04 05:42:47;;;;;;;5.53;3.10;;;19.10;33.30;;;;;;5063122;28;20993;-78
2022/09/04 05:45:24;;;;;;;6.73;3.00;;;19.30;32.50;;;;;;5056082;28;20810;-79
2022/09/04 05:48:04;;;;;;;5.40;2.93;;;19.50;31.70;;;;;;5061188;28;20631;-78
2022/09/04 05:50:49;;;;;;;6.17;2.57;;;19.70;30.60;;;;;;5056694;28;20457;-77
2022/09/04 05:53:40;;;;;;;7.27;3.30;;;20.10;29.40;;;;;;5058173;28;20454;-79
2022/09/04 05:56:28;;;;;;;5.20;3.00;;;20.70;27.90;;;;;;5046307;28;20497;-79
2022/09/04 05:59:16;;;;;;;6.43;3.33;;;20.80;26.20;;;;;;5058870;28;20464;-78
2022/09/04 06:02:05;;;;;;;5.33;3.00;;;20.90;25.90;;;;;;5057971;28;20480;-77
2022/09/04 06:04:55;;;;;;;5.30;3.00;;;21.30;25.10;;;;;;5060831;28;20457;-79
2022/09/04 06:07:27;;;;;;;5.30;3.10;;;22.10;23.50;;;;;;5057384;28;20516;-77
2022/09/04 06:10:03;;;;;;;5.00;2.70;;;22.60;21.40;;;;;;5055952;28;20515;-77
2022/09/04 06:12:57;;;;;;;5.20;3.10;;;23.40;19.80;;;;;;5058875;28;20459;-77
2022/09/04 06:15:40;;;;;;;4.70;2.70;;;24.80;17.10;;;;;;5046933;28;20511;-76
2022/09/04 06:18:30;;;;;;;5.83;2.97;;;26.30;13.80;;;;;;5057868;28;20858;-76
2022/09/04 06:21:25;;;;;;;5.53;2.37;;;27.40;11.20;;;;;;5060921;28;20465;-74
2022/09/04 06:24:18;;;;;;;4.83;2.63;;;28.50;9.30;;;;;;5061787;28;20449;-79
2022/09/04 06:27:00;;;;;;;4.53;2.07;;;29.90;7.00;;;;;;5053028;28;20852;-75
2022/09/04 06:29:52;;;;;;;233.53;24.67;;;31.30;4.70;;;;;;5056485;28;20464;-76
2022/09/04 06:32:47;;;;;;;6.97;2.47;;;32.30;3.00;;;;;;5062219;28;20473;-73
2022/09/04 06:35:45;;;;;;;4.20;2.20;;;32.60;2.00;;;;;;5054210;28;20469;-70
2022/09/04 06:38:31;;;;;;;4.00;2.20;;;33.70;1.00;;;;;;5065401;28;20453;-76
2022/09/04 06:41:24;;;;;;;4.03;2.50;;;34.80;1.00;;;;;;5055523;28;20465;-76
2022/09/04 06:43:59;;;;;;;4.50;2.03;;;35.40;1.00;;;;;;5064810;28;20481;-76
2022/09/04 06:46:37;;;;;;;6.27;2.50;;;36.50;1.00;;;;;;5065271;28;20469;-76
2022/09/04 06:49:09;;;;;;;4.20;2.03;;;37.30;1.00;;;;;;5066797;28;20448;-77
2022/09/04 06:52:06;;;;;;;4.90;2.40;;;38.20;1.00;;;;;;5066337;28;20457;-77
2022/09/04 06:54:45;;;;;;;3.70;1.97;;;39.20;1.00;;;;;;5067626;28;20904;-73
2022/09/04 06:57:52;;;;;;;4.30;2.00;;;39.80;1.00;;;;;;5063822;28;20488;-72
2022/09/04 07:00:20;;;;;;;4.13;2.10;;;40.70;1.00;;;;;;5062462;28;20456;-74
2022/09/04 07:03:12;;;;;;;5.10;2.23;;;40.90;1.00;;;;;;5064898;28;20483;-73
2022/09/04 07:05:49;;;;;;;6.03;2.20;;;40.60;1.00;;;;;;5058594;28;20454;-78
2022/09/04 07:08:28;;;;;;;3.70;2.00;;;41.00;1.00;;;;;;5069384;28;20976;-72
2022/09/04 07:11:08;;;;;;;5.90;2.00;;;42.10;1.00;;;;;;5060555;28;20500;-76
2022/09/04 07:13:59;;;;;;;4.80;2.23;;;42.50;1.00;;;;;;5063686;28;20445;-75
2022/09/04 07:16:34;;;;;;;4.17;2.20;;;41.20;1.00;;;;;;5063463;28;20480;-75
2022/09/04 07:19:24;;;;;;;4.77;2.20;;;41.10;1.00;;;;;;5044584;28;20897;-77
2022/09/04 07:22:06;;;;;;;3.60;1.80;;;41.60;1.00;;;;;;5061977;28;20965;-73
2022/09/04 07:24:46;;;;;;;5.53;1.90;;;42.70;1.00;;;;;;5057984;28;20556;-73
2022/09/04 07:27:23;;;;;;;4.50;2.03;;;43.60;1.00;;;;;;5065064;28;21006;-73
2022/09/04 07:29:57;;;;;;;3.50;1.90;;;44.50;1.00;;;;;;5061146;28;21178;-71
2022/09/04 07:32:31;;;;;;;4.13;2.00;;;45.00;1.00;;;;;;5062455;28;20464;-73
2022/09/04 07:35:07;;;;;;;4.93;1.90;;;45.50;1.00;;;;;;5068343;28;20467;-73
2022/09/04 07:37:43;;;;;;;4.63;2.20;;;46.00;1.00;;;;;;5061537;28;20480;-66
2022/09/04 07:40:16;;;;;;;3.70;1.97;;;46.50;1.00;;;;;;5070935;28;20456;-69
2022/09/04 07:42:50;;;;;;;3.63;1.90;;;46.90;1.00;;;;;;5066435;28;20472;-67
2022/09/04 07:45:29;;;;;;;4.90;2.10;;;47.10;1.00;;;;;;5068398;28;20460;-66
2022/09/04 07:48:05;;;;;;;4.10;1.50;;;47.50;1.00;;;;;;5057274;28;20480;-67
2022/09/04 07:50:36;;;;;;;3.47;1.70;;;47.90;1.00;;;;;;5068420;28;20464;-71
2022/09/04 07:53:24;;;;;;;3.40;1.90;;;48.30;1.00;;;;;;5058604;28;20520;-71
2022/09/04 07:55:56;;;;;;;4.13;2.17;;;48.50;1.00;;;;;;5057635;28;20458;-71
2022/09/04 07:58:54;;;;;;;4.70;1.90;;;48.60;1.00;;;;;;5060987;28;20564;-68
2022/09/04 08:01:47;;;;;;;3.93;2.00;;;48.80;1.00;;;;;;5063056;28;20474;-68
2022/09/04 08:04:48;;;;;;;4.60;2.30;;;49.00;1.00;;;;;;5062181;28;20500;-66
2022/09/04 08:07:21;;;;;;;5.47;2.20;;;49.40;1.00;;;;;;5065083;28;20484;-67
2022/09/04 08:10:04;;;;;;;4.33;2.00;;;49.60;1.00;;;;;;5059482;28;20540;-68
2022/09/04 08:13:17;;;;;;;4.03;2.23;;;49.80;1.00;;;;;;5058820;28;20449;-69
2022/09/04 08:15:53;;;;;;;3.80;1.77;;;49.80;1.00;;;;;;5064595;28;20955;-69
2022/09/04 08:18:35;;;;;;;3.70;2.13;;;50.10;1.00;;;;;;5064026;28;21228;-72
2022/09/04 08:21:13;;;;;;;4.30;2.17;;;50.60;1.00;;;;;;5061727;28;20538;-69
2022/09/04 08:24:13;;;;;;;4.03;2.27;;;50.80;1.00;;;;;;5068255;28;20484;-69
2022/09/04 08:26:50;;;;;;;3.97;1.70;;;50.90;1.00;;;;;;5058719;28;20473;-70
2022/09/04 08:29:33;;;;;;;4.37;1.80;;;51.00;1.00;;;;;;5064348;28;21132;-67
2022/09/04 08:32:14;;;;;;;5.07;2.20;;;51.30;1.00;;;;;;5069933;28;20495;-69
2022/09/04 08:34:58;;;;;;;6.70;2.23;;;51.50;1.00;;;;;;5052959;28;20957;-69
2022/09/04 08:37:26;;;;;;;4.57;1.90;;;51.60;1.00;;;;;;5061989;28;20570;-70
2022/09/04 08:40:11;;;;;;;4.00;1.80;;;51.80;1.00;;;;;;5065542;28;20461;-70
2022/09/04 08:43:16;;;;;;;3.40;1.63;;;52.00;1.00;;;;;;5063886;28;20472;-70
2022/09/04 08:46:26;;;;;;;3.70;2.10;;;52.20;1.00;;;;;;5056618;28;20460;-69
2022/09/04 08:49:18;;;;;;;3.40;2.00;;;52.50;1.00;;;;;;5061428;28;20548;-70
2022/09/04 08:52:26;;;;;;;4.20;1.90;;;52.80;1.00;;;;;;5055430;28;20458;-71
2022/09/04 08:55:25;;;;;;;4.03;1.70;;;53.00;1.00;;;;;;5064831;28;20464;-70
2022/09/04 08:58:23;;;;;;;3.47;1.50;;;53.10;1.00;;;;;;5061663;28;20857;-69
2022/09/04 09:01:29;;;;;;;2.93;1.30;;;53.20;1.00;;;;;;5067365;28;21034;-69
2022/09/04 09:04:40;;;;;;;3.07;1.57;;;53.50;1.00;;;;;;5059509;28;20476;-71
2022/09/04 09:07:43;;;;;;;2.90;1.40;;;53.60;1.00;;;;;;5060497;28;20480;-70
2022/09/04 09:10:53;;;;;;;4.07;1.90;;;53.90;1.00;;;;;;5063473;28;20478;-70
2022/09/04 09:14:26;;;;;;;3.30;1.50;;;54.00;1.00;;;;;;5005604;28;21000;-66
2022/09/04 09:17:11;;;;;;;3.60;1.67;;;53.70;1.00;;;;;;5056445;28;20473;-67
2022/09/04 09:19:44;;;;;;;3.87;1.63;;;51.80;1.00;;;;;;5072505;28;20456;-65
2022/09/04 09:22:36;;;;;;;4.17;1.50;;;51.60;1.00;;;;;;5083775;22;20494;-70
2022/09/04 09:25:16;;;;;;;4.07;1.60;;;52.00;1.00;;;;;;5079537;28;20457;-71
2022/09/04 09:28:40;;;;;;;3.60;1.37;;;52.20;1.00;;;;;;5078982;28;20623;-72
2022/09/04 09:31:55;;;;;;;3.83;1.50;;;52.70;1.00;;;;;;5079978;28;20475;-67
2022/09/04 09:35:18;;;;;;;3.27;1.60;;;52.90;1.00;;;;;;5057823;28;20472;-68
2022/09/04 09:38:18;;;;;;;3.37;1.60;;;53.50;1.00;;;;;;5055644;28;20461;-72
2022/09/04 09:41:33;;;;;;;4.20;1.57;;;53.50;1.00;;;;;;5055391;28;20812;-72
2022/09/04 09:44:41;;;;;;;4.63;1.40;;;53.70;1.00;;;;;;5060779;28;20461;-70
2022/09/04 09:47:50;;;;;;;3.73;1.40;;;54.10;1.00;;;;;;5057188;28;20935;-71
2022/09/04 09:50:43;;;;;;;2.90;1.30;;;54.20;1.00;;;;;;5056257;28;20463;-71
2022/09/04 09:53:48;;;;;;;3.87;1.50;;;54.60;1.00;;;;;;5056959;28;20489;-71
2022/09/04 09:56:51;;;;;;;5.60;1.23;;;54.70;1.00;;;;;;5058001;28;20800;-71
2022/09/04 09:59:43;;;;;;;4.23;1.10;;;54.90;1.00;;;;;;5037766;28;20464;-70
2022/09/04 10:02:39;;;;;;;3.47;1.00;;;55.30;1.00;;;;;;5056957;28;20477;-73
2022/09/04 10:05:30;;;;;;;3.43;1.30;;;55.20;1.00;;;;;;5054877;28;21058;-74
2022/09/04 10:08:29;;;;;;;4.43;1.43;;;55.50;1.00;;;;;;5061168;28;20453;-75
2022/09/04 10:11:27;;;;;;;3.93;1.37;;;55.60;1.00;;;;;;5074133;28;20460;-76
2022/09/04 10:14:24;;;;;;;3.43;1.37;;;55.50;1.00;;;;;;5076126;28;20479;-76
2022/09/04 10:17:21;;;;;;;3.03;1.00;;;55.30;1.00;;;;;;5084096;28;20458;-76
2022/09/04 10:20:17;;;;;;;2.90;1.30;;;55.50;1.00;;;;;;5085821;28;20534;-76
2022/09/04 10:23:02;;;;;;;3.77;1.20;;;55.50;1.00;;;;;;5046448;28;20562;-76
2022/09/04 10:26:01;;;;;;;3.17;1.07;;;55.20;1.00;;;;;;5073363;28;21035;-76
2022/09/04 10:28:49;;;;;;;2.80;1.10;;;55.30;1.00;;;;;;5067322;28;20460;-75
2022/09/04 10:31:52;;;;;;;2.60;1.07;;;55.20;1.00;;;;;;5082400;28;20960;-75
2022/09/04 10:34:49;;;;;;;3.30;1.20;;;54.50;1.00;;;;;;5083616;28;20835;-75
2022/09/04 10:37:33;;;;;;;3.73;1.30;;;54.10;1.00;;;;;;5064329;28;20448;-75
2022/09/04 10:43:13;;;;;;;3.00;1.20;;;54.10;1.00;;;;;;5079915;28;20516;-75
2022/09/04 10:45:45;;;;;;;2.90;1.00;;;54.00;1.00;;;;;;5078120;28;20445;-75
2022/09/04 10:48:27;;;;;;;3.10;1.17;;;53.90;1.00;;;;;;5074768;28;20456;-76
2022/09/04 10:51:26;;;;;;;2.90;1.30;;;53.60;1.00;;;;;;5072357;28;20467;-74
2022/09/04 10:54:20;;;;;;;3.43;1.00;;;53.20;1.00;;;;;;5079917;28;20485;-74
2022/09/04 10:57:00;;;;;;;3.10;1.10;;;53.00;1.00;;;;;;5059758;28;20547;-75
2022/09/04 10:59:47;;;;;;;2.90;1.13;;;52.70;1.00;;;;;;5082821;28;20474;-75
2022/09/04 11:02:37;;;;;;;3.67;1.20;;;52.10;1.00;;;;;;5081989;28;21217;-75
2022/09/04 11:05:22;;;;;;;3.67;1.03;;;51.50;1.00;;;;;;5085253;28;21003;-75
2022/09/04 11:08:14;;;;;;;3.83;1.10;;;50.60;1.00;;;;;;5080832;28;20496;-74
2022/09/04 11:10:53;;;;;;;3.57;1.57;;;48.90;1.00;;;;;;5083613;28;20488;-74
2022/09/04 11:14:05;;;;;;;3.57;1.00;;;46.50;1.00;;;;;;5076993;28;20504;-75
2022/09/04 11:17:07;;;;;;;5.30;1.10;;;43.70;1.00;;;;;;5083118;28;20580;-75
2022/09/04 11:20:25;;;;;;;4.53;1.20;;;41.50;1.00;;;;;;5025213;28;20456;-75
2022/09/04 11:23:44;;;;;;;3.50;1.20;;;39.80;1.00;;;;;;5079162;28;20578;-75
2022/09/04 11:26:42;;;;;;;3.37;1.10;;;38.60;1.00;;;;;;5069984;28;20465;-75
2022/09/04 11:29:43;;;;;;;3.97;1.30;;;37.70;1.00;;;;;;5074135;28;20453;-75
2022/09/04 11:32:39;;;;;;;5.30;1.50;;;36.90;1.00;;;;;;5079760;28;20499;-74
2022/09/04 11:35:45;;;;;;;4.07;1.20;;;36.10;1.00;;;;;;5038860;28;20479;-73
2022/09/04 11:38:19;;;;;;;3.77;1.50;;;35.40;1.00;;;;;;5076462;28;21052;-73
2022/09/04 11:41:31;;;;;;;4.03;1.27;;;35.00;1.00;;;;;;5084571;28;21191;-73
2022/09/04 11:44:31;;;;;;;3.90;1.27;;;34.60;1.00;;;;;;5080682;28;20451;-73
2022/09/04 11:47:30;;;;;;;3.93;1.60;;;34.00;1.00;;;;;;5081803;28;20463;-73
2022/09/04 11:50:23;;;;;;;3.50;1.10;;;33.40;1.00;;;;;;5081872;28;20456;-73
2022/09/04 11:53:25;;;;;;;3.63;1.47;;;32.80;1.00;;;;;;5080891;28;20563;-73
2022/09/04 11:56:29;;;;;;;3.40;1.43;;;32.30;1.00;;;;;;5081258;28;20462;-73
2022/09/04 11:59:21;;;;;;;3.80;1.33;;;32.00;1.00;;;;;;5082447;28;20466;-74
2022/09/04 12:02:16;;;;;;;3.87;1.53;;;31.70;1.00;;;;;;5091838;28;20479;-73
2022/09/04 12:04:55;;;;;;;4.17;1.67;;;31.40;1.00;;;;;;5085799;28;20452;-73
2022/09/04 12:07:36;;;;;;;4.83;1.87;;;31.10;1.10;;;;;;5104166;28;20494;-73
2022/09/04 12:10:30;;;;;;;3.60;1.43;;;30.80;1.00;;;;;;5073552;27;20763;-73
2022/09/04 12:13:15;;;;;;;4.17;1.53;;;30.50;2.30;;;;;;5074503;28;20487;-73
2022/09/04 12:16:25;;;;;;;4.33;1.50;;;30.20;2.80;;;;;;5095738;28;20539;-73
2022/09/04 12:19:26;;;;;;;3.83;1.30;;;29.90;2.50;;;;;;5092467;28;20483;-73
2022/09/04 12:22:21;;;;;;;3.90;1.47;;;29.70;3.70;;;;;;5092558;28;20677;-72
2022/09/04 12:25:09;;;;;;;3.87;1.60;;;29.60;3.70;;;;;;5074660;28;20456;-72
2022/09/04 12:28:09;;;;;;;3.50;1.33;;;29.40;5.10;;;;;;5054305;28;20463;-72
2022/09/04 12:30:55;;;;;;;3.40;1.30;;;29.30;5.20;;;;;;5098077;28;20472;-72
2022/09/04 12:33:46;;;;;;;4.03;1.30;;;29.20;4.80;;;;;;5093715;28;20583;-72
2022/09/04 12:36:59;;;;;;;5.77;1.80;;;29.20;4.80;;;;;;5096987;27;20500;-72
2022/09/04 12:39:56;;;;;;;3.80;1.43;;;29.10;5.00;;;;;;5098914;28;20947;-73
2022/09/04 12:42:28;;;;;;;4.37;1.40;;;29.00;5.20;;;;;;5095979;28;20474;-73
2022/09/04 12:45:06;;;;;;;4.33;1.80;;;28.90;5.50;;;;;;5093243;28;20447;-72
2022/09/04 12:47:48;;;;;;;4.50;1.93;;;28.90;5.50;;;;;;5099228;28;20459;-72
2022/09/04 12:50:37;;;;;;;4.23;1.50;;;28.90;4.30;;;;;;5099102;28;20459;-73
2022/09/04 12:53:34;;;;;;;5.30;1.50;;;28.90;3.90;;;;;;5099263;28;20481;-73
2022/09/04 12:56:06;;;;;;;4.17;1.63;;;29.00;4.90;;;;;;5096788;27;20823;-73
2022/09/04 12:58:49;;;;;;;3.90;1.50;;;29.10;4.20;;;;;;5098703;28;20508;-72
2022/09/04 13:01:30;;;;;;;3.97;1.60;;;29.20;4.60;;;;;;5095749;28;20471;-73
2022/09/04 13:04:05;;;;;;;4.77;1.50;;;29.30;4.30;;;;;;5095528;27;21248;-72
2022/09/04 13:06:42;;;;;;;3.97;1.40;;;29.20;4.60;;;;;;5096008;27;20462;-72
2022/09/04 13:09:19;;;;;;;4.47;1.70;;;29.20;5.70;;;;;;5095460;27;20455;-72
2022/09/04 13:12:01;;;;;;;4.20;1.63;;;29.20;3.90;;;;;;5089599;27;20689;-73
2022/09/04 13:14:59;;;;;;;10.00;1.70;;;29.30;4.60;;;;;;5095558;27;20479;-72
2022/09/04 13:17:34;;;;;;;4.43;1.70;;;29.30;4.90;;;;;;5102323;27;20461;-73
2022/09/04 13:20:12;;;;;;;3.53;1.40;;;29.30;5.00;;;;;;5105011;27;20454;-73
2022/09/04 13:22:51;;;;;;;3.70;1.53;;;29.20;4.80;;;;;;5085728;27;20497;-73
2022/09/04 13:25:33;;;;;;;3.90;1.63;;;29.00;4.40;;;;;;5091756;27;21503;-72
2022/09/04 13:28:10;;;;;;;3.97;1.47;;;28.90;5.20;;;;;;5083080;27;20456;-72
2022/09/04 13:30:47;;;;;;;5.10;2.07;;;28.80;6.00;;;;;;5087937;27;20525;-72
2022/09/04 13:33:38;;;;;;;3.90;1.80;;;28.70;4.70;;;;;;5097136;27;20480;-72
2022/09/04 13:36:22;;;;;;;3.60;1.63;;;28.60;4.60;;;;;;5095645;27;20930;-72
2022/09/04 13:39:28;;;;;;;5.20;1.37;;;28.50;4.80;;;;;;5099756;27;20459;-74
2022/09/04 13:42:13;;;;;;;4.47;1.87;;;28.40;4.50;;;;;;5099566;28;20511;-74
2022/09/04 13:45:04;;;;;;;5.37;1.63;;;28.20;4.60;;;;;;5092453;27;20978;-73
2022/09/04 13:47:38;;;;;;;5.30;1.60;;;28.00;5.60;;;;;;5091254;28;20827;-74
2022/09/04 13:50:10;;;;;;;3.70;1.40;;;28.00;6.00;;;;;;5099867;28;20970;-74
2022/09/04 13:52:45;;;;;;;4.00;1.60;;;28.00;6.30;;;;;;5097520;28;20486;-74
2022/09/04 13:55:17;;;;;;;3.93;1.23;;;27.90;6.20;;;;;;5095062;28;20558;-74
2022/09/04 13:57:56;;;;;;;3.73;1.33;;;27.90;5.90;;;;;;5100350;28;20481;-74
2022/09/04 14:00:23;;;;;;;3.80;1.60;;;27.80;5.60;;;;;;5098712;28;21005;-74
2022/09/04 14:02:59;;;;;;;3.93;1.50;;;27.80;5.90;;;;;;5096628;28;20514;-74
2022/09/04 14:05:27;;;;;;;4.40;1.70;;;27.80;6.10;;;;;;5095858;28;20491;-74
2022/09/04 14:08:01;;;;;;;4.10;1.50;;;27.80;6.10;;;;;;5102223;28;20447;-74
2022/09/04 14:10:47;;;;;;;4.40;1.60;;;27.80;5.90;;;;;;5095927;28;20535;-72
2022/09/04 14:13:29;;;;;;;4.20;1.47;;;27.90;4.90;;;;;;5091533;28;20483;-72
2022/09/04 14:16:05;;;;;;;4.30;1.53;;;28.00;6.30;;;;;;5079749;28;20494;-74
2022/09/04 14:18:54;;;;;;;4.87;1.80;;;28.10;6.20;;;;;;5097029;28;20459;-72
2022/09/04 14:21:35;;;;;;;3.80;1.50;;;28.10;6.30;;;;;;5096055;28;20459;-75
2022/09/04 14:24:11;;;;;;;5.03;1.60;;;28.00;5.60;;;;;;5096726;28;20451;-74
2022/09/04 14:26:49;;;;;;;4.23;1.30;;;27.90;4.50;;;;;;5099460;28;20528;-74
2022/09/04 14:29:26;;;;;;;5.53;1.40;;;27.80;5.20;;;;;;5099665;28;20451;-74
2022/09/04 14:32:04;;;;;;;3.83;1.40;;;27.80;5.30;;;;;;5093936;28;20492;-75